createdAt,value
2016-06-08T00:00:26.745Z,0
2016-06-08T00:01:26.921Z,0
2016-06-08T00:02:26.970Z,0
2016-06-08T00:03:27.003Z,0
2016-06-08T00:04:27.022Z,0
2016-06-08T00:05:27.025Z,0
2016-06-08T00:06:26.919Z,0
2016-06-08T00:07:27.093Z,0
2016-06-08T00:08:26.971Z,0
2016-06-08T00:09:27.145Z,0
2016-06-08T00:10:27.163Z,0
2016-06-08T00:11:27.197Z,0
2016-06-08T00:12:27.637Z,0
2016-06-08T00:13:27.249Z,0
2016-06-08T00:14:27.283Z,0
2016-06-08T00:15:27.130Z,0
2016-06-08T00:16:27.321Z,0
2016-06-08T00:17:27.338Z,0
2016-06-08T00:18:27.373Z,0
2016-06-08T00:19:27.406Z,0
2016-06-08T00:20:27.424Z,0
2016-06-08T00:21:27.302Z,0
2016-06-08T00:22:27.368Z,0
2016-06-08T00:23:27.511Z,0
2016-06-08T00:24:27.528Z,0
2016-06-08T00:25:27.407Z,0
2016-06-08T00:26:27.722Z,0
2016-06-08T00:27:27.928Z,0
2016-06-08T00:28:27.633Z,0
2016-06-08T00:29:27.667Z,0
2016-06-08T00:30:27.686Z,0
2016-06-08T00:31:27.720Z,0
2016-06-08T00:32:27.739Z,0
2016-06-08T00:33:27.803Z,0
2016-06-08T00:34:27.650Z,0
2016-06-08T00:35:27.824Z,0
2016-06-08T00:36:27.842Z,0
2016-06-08T00:37:27.861Z,0
2016-06-08T00:38:27.894Z,0
2016-06-08T00:39:27.930Z,0
2016-06-08T00:40:27.947Z,0
2016-06-08T00:41:28.185Z,0
2016-06-08T00:42:28.016Z,0
2016-06-08T00:43:28.033Z,0
2016-06-08T00:44:28.052Z,0
2016-06-08T00:45:28.085Z,0
2016-06-08T00:46:28.104Z,0
2016-06-08T00:47:28.138Z,0
2016-06-08T00:48:28.157Z,0
2016-06-08T00:49:28.190Z,0
2016-06-08T00:50:28.224Z,0
2016-06-08T00:51:28.257Z,0
2016-06-08T00:52:28.260Z,0
2016-06-08T00:53:28.295Z,0
2016-06-08T00:54:28.312Z,0
2016-06-08T00:55:28.191Z,0
2016-06-08T00:56:28.818Z,0
2016-06-08T00:57:28.103Z,0
2016-06-08T00:58:28.434Z,0
2016-06-08T00:59:28.451Z,0
2016-06-08T01:00:28.470Z,0
2016-06-08T01:01:28.503Z,0
2016-06-08T01:02:28.381Z,0
2016-06-08T01:03:28.259Z,0
2016-06-08T01:04:28.606Z,0
2016-06-08T01:05:28.624Z,0
2016-06-08T01:06:28.642Z,0
2016-06-08T01:07:28.660Z,0
2016-06-08T01:08:28.694Z,0
2016-06-08T01:09:28.713Z,0
2016-06-08T01:10:28.496Z,0
2016-06-08T01:11:28.328Z,0
2016-06-08T01:12:29.080Z,0
2016-06-08T01:13:28.817Z,0
2016-06-08T01:14:28.836Z,0
2016-06-08T01:15:28.869Z,0
2016-06-08T01:16:28.904Z,0
2016-06-08T01:17:28.781Z,0
2016-06-08T01:18:28.940Z,0
2016-06-08T01:19:28.974Z,0
2016-06-08T01:20:29.008Z,0
2016-06-08T01:21:29.026Z,0
2016-06-08T01:22:29.045Z,0
2016-06-08T01:23:29.079Z,0
2016-06-08T01:24:29.128Z,0
2016-06-08T01:25:29.131Z,0
2016-06-08T01:26:30.414Z,0
2016-06-08T01:27:29.465Z,0
2016-06-08T01:28:29.217Z,0
2016-06-08T01:29:29.235Z,0
2016-06-08T01:30:29.254Z,0
2016-06-08T01:31:29.287Z,0
2016-06-08T01:32:29.306Z,0
2016-06-08T01:33:29.339Z,0
2016-06-08T01:34:29.373Z,0
2016-06-08T01:35:29.392Z,0
2016-06-08T01:36:29.426Z,0
2016-06-08T01:37:29.444Z,0
2016-06-08T01:38:29.150Z,0
2016-06-08T01:39:29.371Z,0
2016-06-08T01:40:29.514Z,0
2016-06-08T01:41:29.783Z,0
2016-06-08T01:42:29.926Z,0
2016-06-08T01:43:29.602Z,0
2016-06-08T01:44:29.479Z,0
2016-06-08T01:45:29.653Z,0
2016-06-08T01:46:29.844Z,0
2016-06-08T01:47:29.721Z,0
2016-06-08T01:48:29.568Z,0
2016-06-08T01:49:29.757Z,0
2016-06-08T01:50:29.791Z,0
2016-06-08T01:51:29.826Z,0
2016-06-08T01:52:29.844Z,0
2016-06-08T01:53:29.706Z,0
2016-06-08T01:54:29.896Z,0
2016-06-08T01:55:29.914Z,0
2016-06-08T01:56:29.807Z,0
2016-06-08T01:57:30.029Z,0
2016-06-08T01:58:30.001Z,0
2016-06-08T01:59:29.863Z,0
2016-06-08T02:00:30.053Z,0
2016-06-08T02:01:30.118Z,0
2016-06-08T02:02:29.949Z,0
2016-06-08T02:03:30.123Z,0
2016-06-08T02:04:30.142Z,0
2016-06-08T02:05:30.175Z,0
2016-06-08T02:06:30.209Z,0
2016-06-08T02:07:30.244Z,0
2016-06-08T02:08:30.262Z,0
2016-06-08T02:09:30.280Z,0
2016-06-08T02:10:30.314Z,0
2016-06-08T02:11:31.269Z,0
2016-06-08T02:12:30.726Z,0
2016-06-08T02:13:30.385Z,0
2016-06-08T02:14:30.263Z,0
2016-06-08T02:15:30.453Z,0
2016-06-08T02:16:30.455Z,0
2016-06-08T02:17:30.489Z,0
2016-06-08T02:18:30.508Z,0
2016-06-08T02:19:30.557Z,0
2016-06-08T02:20:30.419Z,0
2016-06-08T02:21:30.593Z,0
2016-06-08T02:22:30.627Z,0
2016-06-08T02:23:30.646Z,0
2016-06-08T02:24:30.680Z,0
2016-06-08T02:25:30.698Z,0
2016-06-08T02:26:30.732Z,0
2016-06-08T02:27:30.625Z,0
2016-06-08T02:28:30.784Z,0
2016-06-08T02:29:30.834Z,0
2016-06-08T02:30:30.836Z,0
2016-06-08T02:31:30.871Z,0
2016-06-08T02:32:30.889Z,0
2016-06-08T02:33:30.907Z,0
2016-06-08T02:34:30.785Z,0
2016-06-08T02:35:30.959Z,0
2016-06-08T02:36:30.994Z,0
2016-06-08T02:37:30.872Z,0
2016-06-08T02:38:31.061Z,0
2016-06-08T02:39:31.064Z,0
2016-06-08T02:40:31.098Z,0
2016-06-08T02:41:31.132Z,0
2016-06-08T02:42:32.025Z,0
2016-06-08T02:43:31.168Z,0
2016-06-08T02:44:31.218Z,0
2016-06-08T02:45:31.237Z,0
2016-06-08T02:46:31.254Z,0
2016-06-08T02:47:31.133Z,0
2016-06-08T02:48:31.307Z,0
2016-06-08T02:49:31.216Z,0
2016-06-08T02:50:31.360Z,0
2016-06-08T02:51:31.237Z,0
2016-06-08T02:52:31.240Z,0
2016-06-08T02:53:31.430Z,0
2016-06-08T02:54:31.479Z,0
2016-06-08T02:55:31.482Z,0
2016-06-08T02:56:31.516Z,0
2016-06-08T02:57:32.393Z,0
2016-06-08T02:58:31.568Z,0
2016-06-08T02:59:31.601Z,0
2016-06-08T03:00:31.464Z,0
2016-06-08T03:01:31.640Z,0
2016-06-08T03:02:31.672Z,0
2016-06-08T03:03:31.707Z,0
2016-06-08T03:04:31.725Z,0
2016-06-08T03:05:31.743Z,0
2016-06-08T03:06:31.778Z,0
2016-06-08T03:07:31.795Z,0
2016-06-08T03:08:31.673Z,0
2016-06-08T03:09:31.848Z,0
2016-06-08T03:10:31.881Z,0
2016-06-08T03:11:31.900Z,0
2016-06-08T03:12:33.044Z,0
2016-06-08T03:13:31.811Z,0
2016-06-08T03:14:31.986Z,0
2016-06-08T03:15:32.004Z,0
2016-06-08T03:16:32.038Z,0
2016-06-08T03:17:32.073Z,0
2016-06-08T03:18:32.107Z,0
2016-06-08T03:19:31.969Z,0
2016-06-08T03:20:32.143Z,0
2016-06-08T03:21:32.177Z,0
2016-06-08T03:22:32.195Z,0
2016-06-08T03:23:32.073Z,0
2016-06-08T03:24:32.091Z,0
2016-06-08T03:25:32.266Z,0
2016-06-08T03:26:32.300Z,0
2016-06-08T03:27:33.084Z,0
2016-06-08T03:28:32.352Z,0
2016-06-08T03:29:32.386Z,0
2016-06-08T03:30:32.404Z,0
2016-06-08T03:31:32.437Z,0
2016-06-08T03:32:32.456Z,0
2016-06-08T03:33:32.491Z,0
2016-06-08T03:34:32.525Z,0
2016-06-08T03:35:32.528Z,0
2016-06-08T03:36:32.561Z,0
2016-06-08T03:37:32.579Z,0
2016-06-08T03:38:32.614Z,0
2016-06-08T03:39:32.491Z,0
2016-06-08T03:40:32.666Z,0
2016-06-08T03:41:32.700Z,0
2016-06-08T03:42:33.156Z,0
2016-06-08T03:43:32.595Z,0
2016-06-08T03:44:32.770Z,0
2016-06-08T03:45:32.789Z,0
2016-06-08T03:46:34.478Z,0
2016-06-08T03:47:32.855Z,0
2016-06-08T03:48:32.875Z,0
2016-06-08T03:49:32.908Z,0
2016-06-08T03:50:32.927Z,0
2016-06-08T03:51:32.945Z,0
2016-06-08T03:52:32.994Z,0
2016-06-08T03:53:33.013Z,0
2016-06-08T03:54:33.032Z,0
2016-06-08T03:55:33.065Z,0
2016-06-08T03:56:33.084Z,0
2016-06-08T03:57:33.351Z,0
2016-06-08T03:58:32.980Z,0
2016-06-08T03:59:33.171Z,0
2016-06-08T04:00:33.188Z,0
2016-06-08T04:01:33.222Z,0
2016-06-08T04:02:33.084Z,0
2016-06-08T04:03:33.259Z,0
2016-06-08T04:04:33.292Z,0
2016-06-08T04:05:33.326Z,0
2016-06-08T04:06:33.345Z,0
2016-06-08T04:07:33.379Z,0
2016-06-08T04:08:33.397Z,0
2016-06-08T04:09:33.431Z,0
2016-06-08T04:10:33.450Z,0
2016-06-08T04:11:33.327Z,0
2016-06-08T04:12:33.627Z,0
2016-06-08T04:13:33.535Z,0
2016-06-08T04:14:33.570Z,0
2016-06-08T04:15:33.573Z,0
2016-06-08T04:16:33.606Z,0
2016-06-08T04:17:33.624Z,0
2016-06-08T04:18:33.658Z,0
2016-06-08T04:19:33.692Z,0
2016-06-08T04:20:33.710Z,0
2016-06-08T04:21:33.791Z,0
2016-06-08T04:22:33.763Z,0
2016-06-08T04:23:33.797Z,0
2016-06-08T04:24:33.830Z,0
2016-06-08T04:25:33.849Z,0
2016-06-08T04:26:33.868Z,0
2016-06-08T04:27:34.260Z,0
2016-06-08T04:28:33.920Z,0
2016-06-08T04:29:33.968Z,0
2016-06-08T04:30:34.004Z,0
2016-06-08T04:31:34.022Z,0
2016-06-08T04:32:34.024Z,0
2016-06-08T04:33:34.059Z,0
2016-06-08T04:34:34.076Z,0
2016-06-08T04:35:34.110Z,0
2016-06-08T04:36:34.144Z,0
2016-06-08T04:37:34.162Z,0
2016-06-08T04:38:34.181Z,0
2016-06-08T04:39:34.215Z,0
2016-06-08T04:40:34.233Z,0
2016-06-08T04:41:34.267Z,0
2016-06-08T04:42:34.989Z,0
2016-06-08T04:43:34.194Z,0
2016-06-08T04:44:34.338Z,0
2016-06-08T04:45:34.371Z,0
2016-06-08T04:46:34.234Z,0
2016-06-08T04:47:34.425Z,0
2016-06-08T04:48:34.442Z,0
2016-06-08T04:49:34.476Z,0
2016-06-08T04:50:34.510Z,0
2016-06-08T04:51:34.528Z,0
2016-06-08T04:52:34.546Z,0
2016-06-08T04:53:34.581Z,0
2016-06-08T04:54:34.599Z,0
2016-06-08T04:55:34.649Z,0
2016-06-08T04:56:34.666Z,0
2016-06-08T04:57:35.935Z,0
2016-06-08T04:58:35.251Z,0
2016-06-08T04:59:34.581Z,0
2016-06-08T05:00:34.771Z,0
2016-06-08T05:01:34.789Z,0
2016-06-08T05:02:34.807Z,0
2016-06-08T05:03:34.843Z,0
2016-06-08T05:04:34.892Z,0
2016-06-08T05:05:34.754Z,0
2016-06-08T05:06:34.915Z,0
2016-06-08T05:07:34.959Z,0
2016-06-08T05:08:35.020Z,0
2016-06-08T05:09:35.032Z,0
2016-06-08T05:10:34.921Z,0
2016-06-08T05:11:35.103Z,0
2016-06-08T05:12:35.501Z,0
2016-06-08T05:13:35.960Z,0
2016-06-08T05:14:35.186Z,0
2016-06-08T05:15:35.254Z,0
2016-06-08T05:16:35.260Z,0
2016-06-08T05:17:35.124Z,0
2016-06-08T05:18:35.159Z,0
2016-06-08T05:19:35.335Z,0
2016-06-08T05:20:35.370Z,0
2016-06-08T05:21:35.390Z,0
2016-06-08T05:22:35.423Z,0
2016-06-08T05:23:35.458Z,0
2016-06-08T05:24:35.320Z,0
2016-06-08T05:25:35.511Z,0
2016-06-08T05:26:35.530Z,0
2016-06-08T05:27:35.454Z,0
2016-06-08T05:28:35.614Z,0
2016-06-08T05:29:35.601Z,0
2016-06-08T05:30:35.635Z,0
2016-06-08T05:31:35.654Z,0
2016-06-08T05:32:35.704Z,0
2016-06-08T05:33:35.722Z,0
2016-06-08T05:34:35.740Z,0
2016-06-08T05:35:35.774Z,0
2016-06-08T05:36:35.808Z,0
2016-06-08T05:37:35.827Z,0
2016-06-08T05:38:35.845Z,0
2016-06-08T05:39:35.722Z,0
2016-06-08T05:40:35.929Z,0
2016-06-08T05:41:35.947Z,0
2016-06-08T05:42:36.371Z,0
2016-06-08T05:43:36.889Z,0
2016-06-08T05:44:36.001Z,0
2016-06-08T05:45:36.051Z,0
2016-06-08T05:46:36.117Z,0
2016-06-08T05:47:35.931Z,0
2016-06-08T05:48:36.106Z,0
2016-06-08T05:49:36.140Z,0
2016-06-08T05:50:36.158Z,0
2016-06-08T05:51:36.192Z,0
2016-06-08T05:52:36.070Z,0
2016-06-08T05:53:35.932Z,0
2016-06-08T05:54:36.278Z,0
2016-06-08T05:55:36.312Z,0
2016-06-08T05:56:36.331Z,0
2016-06-08T05:57:36.661Z,0
2016-06-08T05:58:36.086Z,0
2016-06-08T05:59:36.401Z,0
2016-06-08T06:00:36.435Z,0
2016-06-08T06:01:36.454Z,0
2016-06-08T06:02:36.487Z,0
2016-06-08T06:03:36.521Z,0
2016-06-08T06:04:36.539Z,0
2016-06-08T06:05:36.590Z,0
2016-06-08T06:06:36.593Z,0
2016-06-08T06:07:36.626Z,0
2016-06-08T06:08:36.487Z,0
2016-06-08T06:09:36.662Z,0
2016-06-08T06:10:36.696Z,0
2016-06-08T06:11:36.730Z,0
2016-06-08T06:12:36.748Z,0
2016-06-08T06:13:37.204Z,0
2016-06-08T06:14:36.817Z,0
2016-06-08T06:15:36.835Z,0
2016-06-08T06:16:36.853Z,0
2016-06-08T06:17:36.731Z,0
2016-06-08T06:18:36.764Z,0
2016-06-08T06:19:36.939Z,0
2016-06-08T06:20:36.973Z,0
2016-06-08T06:21:36.991Z,0
2016-06-08T06:22:37.025Z,0
2016-06-08T06:23:36.310Z,0
2016-06-08T06:24:36.922Z,0
2016-06-08T06:25:37.111Z,0
2016-06-08T06:26:37.130Z,0
2016-06-08T06:27:37.164Z,0
2016-06-08T06:28:37.463Z,0
2016-06-08T06:29:37.060Z,0
2016-06-08T06:30:37.234Z,0
2016-06-08T06:31:37.268Z,0
2016-06-08T06:32:37.288Z,0
2016-06-08T06:33:37.321Z,0
2016-06-08T06:34:37.354Z,0
2016-06-08T06:35:37.374Z,0
2016-06-08T06:36:37.313Z,0
2016-06-08T06:37:37.301Z,0
2016-06-08T06:38:37.443Z,0
2016-06-08T06:39:37.478Z,0
2016-06-08T06:40:37.512Z,0
2016-06-08T06:41:37.529Z,0
2016-06-08T06:42:37.564Z,0
2016-06-08T06:43:38.864Z,0
2016-06-08T06:44:37.617Z,0
2016-06-08T06:45:37.665Z,0
2016-06-08T06:46:37.668Z,0
2016-06-08T06:47:37.703Z,0
2016-06-08T06:48:37.736Z,0
2016-06-08T06:49:37.755Z,0
2016-06-08T06:50:37.788Z,0
2016-06-08T06:51:37.822Z,0
2016-06-08T06:52:37.684Z,0
2016-06-08T06:53:37.859Z,0
2016-06-08T06:54:37.909Z,0
2016-06-08T06:55:37.911Z,0
2016-06-08T06:56:37.945Z,0
2016-06-08T06:57:37.979Z,0
2016-06-08T06:58:38.013Z,0
2016-06-08T06:59:38.032Z,0
2016-06-08T07:00:38.065Z,0
2016-06-08T07:01:38.115Z,0
2016-06-08T07:02:38.118Z,0
2016-06-08T07:03:38.136Z,0
2016-06-08T07:04:38.171Z,0
2016-06-08T07:05:38.187Z,0
2016-06-08T07:06:38.222Z,0
2016-06-08T07:07:38.257Z,0
2016-06-08T07:08:38.134Z,0
2016-06-08T07:09:38.309Z,0
2016-06-08T07:10:38.373Z,0
2016-06-08T07:11:38.220Z,0
2016-06-08T07:12:38.410Z,0
2016-06-08T07:13:38.444Z,0
2016-06-08T07:14:38.462Z,0
2016-06-08T07:15:38.480Z,0
2016-06-08T07:16:38.514Z,0
2016-06-08T07:17:38.549Z,0
2016-06-08T07:18:38.411Z,0
2016-06-08T07:19:38.575Z,0
2016-06-08T07:20:38.623Z,0
2016-06-08T07:21:38.659Z,0
2016-06-08T07:22:38.681Z,0
2016-06-08T07:23:38.703Z,0
2016-06-08T07:24:38.576Z,0
2016-06-08T07:25:38.641Z,0
2016-06-08T07:26:38.784Z,0
2016-06-08T07:27:38.850Z,0
2016-06-08T07:28:39.493Z,0
2016-06-08T07:29:38.902Z,0
2016-06-08T07:30:38.905Z,0
2016-06-08T07:31:38.938Z,0
2016-06-08T07:32:38.956Z,0
2016-06-08T07:33:39.006Z,0
2016-06-08T07:34:39.041Z,0
2016-06-08T07:35:39.064Z,0
2016-06-08T07:36:39.083Z,0
2016-06-08T07:37:38.945Z,0
2016-06-08T07:38:39.151Z,0
2016-06-08T07:39:39.153Z,0
2016-06-08T07:40:39.203Z,0
2016-06-08T07:41:39.102Z,0
2016-06-08T07:42:39.088Z,0
2016-06-08T07:43:39.388Z,0
2016-06-08T07:44:39.344Z,0
2016-06-08T07:45:39.190Z,0
2016-06-08T07:46:40.068Z,0
2016-06-08T07:47:39.085Z,0
2016-06-08T07:48:39.276Z,0
2016-06-08T07:49:39.294Z,0
2016-06-08T07:50:39.485Z,0
2016-06-08T07:51:39.498Z,0
2016-06-08T07:52:39.376Z,0
2016-06-08T07:53:39.426Z,0
2016-06-08T07:54:40.693Z,0
2016-06-08T07:55:39.634Z,0
2016-06-08T07:56:39.654Z,0
2016-06-08T07:57:39.719Z,0
2016-06-08T07:58:39.769Z,0
2016-06-08T07:59:39.756Z,0
2016-06-08T08:00:39.758Z,0
2016-06-08T08:01:39.855Z,0
2016-06-08T08:02:39.670Z,0
2016-06-08T08:03:39.845Z,0
2016-06-08T08:04:39.894Z,0
2016-06-08T08:05:39.772Z,0
2016-06-08T08:06:39.962Z,0
2016-06-08T08:07:40.012Z,0
2016-06-08T08:08:39.859Z,0
2016-06-08T08:09:39.877Z,0
2016-06-08T08:10:40.052Z,0
2016-06-08T08:11:40.088Z,0
2016-06-08T08:12:40.106Z,0
2016-06-08T08:13:41.078Z,0
2016-06-08T08:14:39.900Z,0
2016-06-08T08:15:40.044Z,0
2016-06-08T08:16:40.218Z,0
2016-06-08T08:17:40.299Z,0
2016-06-08T08:18:40.130Z,0
2016-06-08T08:19:40.164Z,0
2016-06-08T08:20:40.213Z,0
2016-06-08T08:21:41.060Z,0
2016-06-08T08:22:40.406Z,0
2016-06-08T08:23:40.472Z,0
2016-06-08T08:24:40.491Z,0
2016-06-08T08:25:40.508Z,0
2016-06-08T08:26:40.512Z,0
2016-06-08T08:27:40.451Z,0
2016-06-08T08:28:41.829Z,0
2016-06-08T08:29:40.785Z,0
2016-06-08T08:30:40.631Z,0
2016-06-08T08:31:40.665Z,0
2016-06-08T08:32:40.698Z,0
2016-06-08T08:33:40.717Z,0
2016-06-08T08:34:41.189Z,0
2016-06-08T08:35:40.816Z,0
2016-06-08T08:36:40.647Z,0
2016-06-08T08:37:40.869Z,0
2016-06-08T08:38:40.856Z,0
2016-06-08T08:39:40.937Z,0
2016-06-08T08:40:40.924Z,0
2016-06-08T08:41:40.942Z,0
2016-06-08T08:42:41.008Z,0
2016-06-08T08:43:41.292Z,0
2016-06-08T08:44:41.185Z,0
2016-06-08T08:45:41.063Z,0
2016-06-08T08:46:41.143Z,0
2016-06-08T08:47:41.130Z,0
2016-06-08T08:48:41.163Z,0
2016-06-08T08:49:41.026Z,0
2016-06-08T08:50:41.216Z,0
2016-06-08T08:51:41.234Z,0
2016-06-08T08:52:41.268Z,0
2016-06-08T08:53:41.302Z,0
2016-06-08T08:54:41.336Z,0
2016-06-08T08:55:41.354Z,0
2016-06-08T08:56:41.388Z,0
2016-06-08T08:57:41.407Z,0
2016-06-08T08:58:42.238Z,0
2016-06-08T08:59:41.194Z,0
2016-06-08T09:00:41.352Z,0
2016-06-08T09:01:41.543Z,0
2016-06-08T09:02:41.437Z,0
2016-06-08T09:03:41.595Z,0
2016-06-08T09:04:41.614Z,0
2016-06-08T09:05:41.662Z,0
2016-06-08T09:06:41.525Z,0
2016-06-08T09:07:41.715Z,0
2016-06-08T09:08:41.749Z,0
2016-06-08T09:09:41.783Z,0
2016-06-08T09:10:41.833Z,5
2016-06-08T09:11:42.569Z,5
2016-06-08T09:12:41.697Z,5
2016-06-08T09:13:41.731Z,0
2016-06-08T09:14:42.562Z,0
2016-06-08T09:15:41.971Z,0
2016-06-08T09:16:41.974Z,0
2016-06-08T09:17:42.039Z,0
2016-06-08T09:18:42.416Z,0
2016-06-08T09:19:42.060Z,0
2016-06-08T09:20:42.094Z,0
2016-06-08T09:21:42.144Z,0
2016-06-08T09:22:41.990Z,0
2016-06-08T09:23:42.196Z,0
2016-06-08T09:24:42.057Z,0
2016-06-08T09:25:42.263Z,0
2016-06-08T09:26:42.266Z,0
2016-06-08T09:27:42.301Z,0
2016-06-08T09:28:42.474Z,0
2016-06-08T09:29:44.055Z,0
2016-06-08T09:30:42.402Z,0
2016-06-08T09:31:42.420Z,5
2016-06-08T09:32:42.439Z,0
2016-06-08T09:33:42.487Z,0
2016-06-08T09:34:42.506Z,5
2016-06-08T09:35:42.572Z,0
2016-06-08T09:36:42.402Z,0
2016-06-08T09:37:42.592Z,0
2016-06-08T09:38:42.626Z,0
2016-06-08T09:39:42.661Z,0
2016-06-08T09:40:42.679Z,0
2016-06-08T09:41:42.713Z,0
2016-06-08T09:42:42.622Z,0
2016-06-08T09:43:42.781Z,0
2016-06-08T09:44:42.815Z,0
2016-06-08T09:45:42.849Z,0
2016-06-08T09:46:45.258Z,0
2016-06-08T09:47:42.744Z,0
2016-06-08T09:48:42.919Z,0
2016-06-08T09:49:42.953Z,0
2016-06-08T09:50:42.987Z,0
2016-06-08T09:51:43.036Z,0
2016-06-08T09:52:43.038Z,0
2016-06-08T09:53:43.089Z,0
2016-06-08T09:54:43.091Z,0
2016-06-08T09:55:43.126Z,0
2016-06-08T09:56:43.003Z,0
2016-06-08T09:57:43.177Z,0
2016-06-08T09:58:43.430Z,0
2016-06-08T09:59:43.198Z,0
2016-06-08T10:00:43.279Z,0
2016-06-08T10:01:43.329Z,0
2016-06-08T10:02:43.348Z,0
2016-06-08T10:03:43.225Z,0
2016-06-08T10:04:43.400Z,0
2016-06-08T10:05:43.434Z,0
2016-06-08T10:06:43.452Z,0
2016-06-08T10:07:43.346Z,0
2016-06-08T10:08:43.503Z,0
2016-06-08T10:09:43.554Z,0
2016-06-08T10:10:43.572Z,0
2016-06-08T10:11:43.622Z,0
2016-06-08T10:12:43.640Z,0
2016-06-08T10:13:43.830Z,0
2016-06-08T10:14:45.380Z,0
2016-06-08T10:15:43.726Z,0
2016-06-08T10:16:43.604Z,0
2016-06-08T10:17:43.794Z,0
2016-06-08T10:18:43.655Z,0
2016-06-08T10:19:43.549Z,0
2016-06-08T10:20:43.880Z,0
2016-06-08T10:21:43.899Z,0
2016-06-08T10:22:43.932Z,0
2016-06-08T10:23:43.966Z,0
2016-06-08T10:24:44.015Z,0
2016-06-08T10:25:44.034Z,0
2016-06-08T10:26:44.052Z,0
2016-06-08T10:27:44.087Z,0
2016-06-08T10:28:45.152Z,0
2016-06-08T10:29:44.826Z,0
2016-06-08T10:30:44.188Z,0
2016-06-08T10:31:44.206Z,0
2016-06-08T10:32:44.241Z,0
2016-06-08T10:33:43.946Z,0
2016-06-08T10:34:43.981Z,0
2016-06-08T10:35:44.311Z,0
2016-06-08T10:36:44.204Z,0
2016-06-08T10:37:44.379Z,0
2016-06-08T10:38:44.413Z,0
2016-06-08T10:39:44.431Z,0
2016-06-08T10:40:44.309Z,0
2016-06-08T10:41:44.515Z,0
2016-06-08T10:42:44.548Z,0
2016-06-08T10:43:45.739Z,0
2016-06-08T10:44:45.242Z,0
2016-06-08T10:45:44.619Z,0
2016-06-08T10:46:45.606Z,0
2016-06-08T10:47:44.671Z,0
2016-06-08T10:48:44.736Z,0
2016-06-08T10:49:44.771Z,0
2016-06-08T10:50:44.836Z,0
2016-06-08T10:51:44.822Z,0
2016-06-08T10:52:46.872Z,0
2016-06-08T10:53:44.891Z,0
2016-06-08T10:54:44.878Z,0
2016-06-08T10:55:44.912Z,0
2016-06-08T10:56:44.945Z,0
2016-06-08T10:57:44.979Z,0
2016-06-08T10:58:44.732Z,0
2016-06-08T10:59:46.001Z,0
2016-06-08T11:00:45.066Z,0
2016-06-08T11:01:45.116Z,0
2016-06-08T11:02:45.024Z,0
2016-06-08T11:03:46.152Z,0
2016-06-08T11:04:45.201Z,0
2016-06-08T11:05:45.064Z,0
2016-06-08T11:06:44.957Z,0
2016-06-08T11:07:45.304Z,0
2016-06-08T11:08:45.306Z,0
2016-06-08T11:09:45.356Z,0
2016-06-08T11:10:45.373Z,0
2016-06-08T11:11:45.251Z,0
2016-06-08T11:12:45.442Z,0
2016-06-08T11:13:45.163Z,0
2016-06-08T11:14:46.150Z,0
2016-06-08T11:15:45.387Z,0
2016-06-08T11:16:45.546Z,0
2016-06-08T11:17:45.580Z,0
2016-06-08T11:18:45.599Z,0
2016-06-08T11:19:45.616Z,0
2016-06-08T11:20:45.526Z,0
2016-06-08T11:21:45.701Z,0
2016-06-08T11:22:45.718Z,0
2016-06-08T11:23:45.738Z,0
2016-06-08T11:24:45.771Z,0
2016-06-08T11:25:45.805Z,0
2016-06-08T11:26:45.699Z,0
2016-06-08T11:27:45.873Z,0
2016-06-08T11:28:45.938Z,0
2016-06-08T11:29:46.410Z,0
2016-06-08T11:30:45.959Z,0
2016-06-08T11:31:45.977Z,0
2016-06-08T11:32:46.012Z,0
2016-06-08T11:33:46.060Z,0
2016-06-08T11:34:46.063Z,0
2016-06-08T11:35:46.098Z,0
2016-06-08T11:36:46.131Z,0
2016-06-08T11:37:46.165Z,0
2016-06-08T11:38:46.183Z,0
2016-06-08T11:39:46.217Z,0
2016-06-08T11:40:46.252Z,0
2016-06-08T11:41:46.286Z,0
2016-06-08T11:42:46.304Z,0
2016-06-08T11:43:46.728Z,0
2016-06-08T11:44:46.481Z,0
2016-06-08T11:45:46.406Z,0
2016-06-08T11:46:46.596Z,0
2016-06-08T11:47:46.317Z,0
2016-06-08T11:48:46.492Z,0
2016-06-08T11:49:46.557Z,0
2016-06-08T11:50:48.638Z,0
2016-06-08T11:51:46.578Z,0
2016-06-08T11:52:46.471Z,5
2016-06-08T11:53:46.630Z,0
2016-06-08T11:54:46.508Z,0
2016-06-08T11:55:46.557Z,0
2016-06-08T11:56:46.577Z,0
2016-06-08T11:57:46.969Z,0
2016-06-08T11:58:47.518Z,0
2016-06-08T11:59:46.568Z,0
2016-06-08T12:00:46.852Z,5
2016-06-08T12:01:46.870Z,5
2016-06-08T12:02:46.749Z,0
2016-06-08T12:03:46.626Z,0
2016-06-08T12:04:46.956Z,0
2016-06-08T12:05:46.991Z,0
2016-06-08T12:06:47.040Z,0
2016-06-08T12:07:47.090Z,0
2016-06-08T12:08:46.937Z,0
2016-06-08T12:09:46.954Z,0
2016-06-08T12:10:46.989Z,0
2016-06-08T12:11:47.038Z,0
2016-06-08T12:12:47.587Z,0
2016-06-08T12:13:47.247Z,0
2016-06-08T12:14:47.125Z,0
2016-06-08T12:15:47.283Z,0
2016-06-08T12:16:47.005Z,0
2016-06-08T12:17:47.351Z,0
2016-06-08T12:18:47.228Z,0
2016-06-08T12:19:47.247Z,0
2016-06-08T12:20:47.265Z,0
2016-06-08T12:21:47.455Z,0
2016-06-08T12:22:47.505Z,0
2016-06-08T12:23:47.524Z,0
2016-06-08T12:24:47.557Z,0
2016-06-08T12:25:47.435Z,0
2016-06-08T12:26:47.453Z,0
2016-06-08T12:27:47.331Z,0
2016-06-08T12:28:47.678Z,0
2016-06-08T12:29:48.321Z,0
2016-06-08T12:30:47.729Z,0
2016-06-08T12:31:47.764Z,0
2016-06-08T12:32:47.782Z,0
2016-06-08T12:33:47.816Z,0
2016-06-08T12:34:47.834Z,0
2016-06-08T12:35:47.868Z,0
2016-06-08T12:36:47.902Z,0
2016-06-08T12:37:47.967Z,0
2016-06-08T12:38:47.954Z,0
2016-06-08T12:39:47.988Z,0
2016-06-08T12:40:48.006Z,0
2016-06-08T12:41:48.040Z,0
2016-06-08T12:42:48.075Z,0
2016-06-08T12:43:48.093Z,0
2016-06-08T12:44:48.298Z,0
2016-06-08T12:45:48.145Z,0
2016-06-08T12:46:48.195Z,0
2016-06-08T12:47:48.056Z,0
2016-06-08T12:48:48.247Z,0
2016-06-08T12:49:48.265Z,0
2016-06-08T12:50:48.299Z,0
2016-06-08T12:51:48.317Z,0
2016-06-08T12:52:48.352Z,0
2016-06-08T12:53:48.385Z,0
2016-06-08T12:54:48.403Z,0
2016-06-08T12:55:48.438Z,0
2016-06-08T12:56:48.455Z,0
2016-06-08T12:57:48.491Z,0
2016-06-08T12:58:48.539Z,0
2016-06-08T12:59:49.386Z,0
2016-06-08T13:01:19.061Z,0
2016-06-08T13:01:48.610Z,0
2016-06-08T13:02:48.644Z,0
2016-06-08T13:03:48.662Z,0
2016-06-08T13:04:48.696Z,0
2016-06-08T13:05:48.730Z,0
2016-06-08T13:06:48.748Z,0
2016-06-08T13:07:48.767Z,0
2016-06-08T13:08:48.800Z,0
2016-06-08T13:09:48.834Z,0
2016-06-08T13:10:48.885Z,0
2016-06-08T13:11:48.903Z,0
2016-06-08T13:12:48.920Z,0
2016-06-08T13:13:48.798Z,0
2016-06-08T13:14:48.957Z,0
2016-06-08T13:15:48.867Z,0
2016-06-08T13:16:49.041Z,0
2016-06-08T13:17:49.044Z,0
2016-06-08T13:18:49.077Z,0
2016-06-08T13:19:49.111Z,0
2016-06-08T13:20:49.146Z,0
2016-06-08T13:21:49.023Z,0
2016-06-08T13:22:49.197Z,0
2016-06-08T13:23:49.263Z,0
2016-06-08T13:24:49.250Z,0
2016-06-08T13:25:49.284Z,0
2016-06-08T13:26:49.318Z,0
2016-06-08T13:27:49.352Z,0
2016-06-08T13:28:49.386Z,0
2016-06-08T13:29:49.810Z,0
2016-06-08T13:30:49.641Z,0
2016-06-08T13:31:49.457Z,0
2016-06-08T13:32:49.490Z,0
2016-06-08T13:33:49.508Z,0
2016-06-08T13:34:49.558Z,0
2016-06-08T13:35:49.577Z,0
2016-06-08T13:36:49.626Z,0
2016-06-08T13:37:49.628Z,0
2016-06-08T13:38:49.662Z,0
2016-06-08T13:39:49.682Z,0
2016-06-08T13:40:49.731Z,0
2016-06-08T13:41:49.780Z,0
2016-06-08T13:42:49.626Z,0
2016-06-08T13:43:49.645Z,0
2016-06-08T13:44:50.413Z,0
2016-06-08T13:45:49.870Z,0
2016-06-08T13:46:49.903Z,0
2016-06-08T13:47:49.625Z,0
2016-06-08T13:48:49.956Z,0
2016-06-08T13:49:49.989Z,0
2016-06-08T13:50:49.851Z,0
2016-06-08T13:51:50.041Z,0
2016-06-08T13:52:50.075Z,0
2016-06-08T13:53:50.125Z,0
2016-06-08T13:54:50.127Z,0
2016-06-08T13:55:50.162Z,0
2016-06-08T13:56:50.195Z,0
2016-06-08T13:57:50.213Z,0
2016-06-08T13:58:50.280Z,0
2016-06-08T13:59:50.172Z,0
2016-06-08T14:00:50.785Z,0
2016-06-08T14:01:50.349Z,0
2016-06-08T14:02:50.368Z,0
2016-06-08T14:03:50.386Z,0
2016-06-08T14:04:50.421Z,0
2016-06-08T14:05:50.469Z,0
2016-06-08T14:06:50.504Z,0
2016-06-08T14:07:50.507Z,0
2016-06-08T14:08:50.540Z,0
2016-06-08T14:09:50.417Z,0
2016-06-08T14:10:50.593Z,0
2016-06-08T14:11:50.626Z,55
2016-06-08T14:12:50.732Z,0
2016-06-08T14:13:50.941Z,0
2016-06-08T14:14:51.619Z,85
2016-06-08T14:15:51.718Z,85
2016-06-08T14:16:51.553Z,110
2016-06-08T14:17:51.716Z,110
2016-06-08T14:18:51.798Z,110
2016-06-08T14:19:51.896Z,110
2016-06-08T14:20:51.992Z,110
2016-06-08T14:21:52.074Z,115
2016-06-08T14:22:52.171Z,115
2016-06-08T14:23:52.243Z,115
2016-06-08T14:24:52.113Z,115
2016-06-08T14:25:52.310Z,115
2016-06-08T14:26:52.352Z,115
2016-06-08T14:27:52.418Z,115
2016-06-08T14:28:52.444Z,115
2016-06-08T14:29:52.346Z,115
2016-06-08T14:30:53.655Z,105
2016-06-08T14:31:52.556Z,105
2016-06-08T14:32:52.612Z,115
2016-06-08T14:33:52.635Z,100
2016-06-08T14:34:52.656Z,105
2016-06-08T14:35:52.536Z,105
2016-06-08T14:36:52.746Z,105
2016-06-08T14:37:52.752Z,105
2016-06-08T14:38:52.787Z,105
2016-06-08T14:39:52.838Z,105
2016-06-08T14:40:52.717Z,120
2016-06-08T14:41:52.894Z,115
2016-06-08T14:42:52.913Z,120
2016-06-08T14:43:52.947Z,120
2016-06-08T14:44:52.842Z,115